Intrepid Eagle — V7AV3 — position and weather

sailwx.info

Track history (hours):
 
Tides and Currents Weather Stations Pressure Air Temp Water Temp Dewpoint Dewpoint Depression Visibility Wind Speed Wind Dir Waves Ship Positions

Intrepid Eagle

Last reported at 2018-Feb-02 15:30 UTC. Time now 2018-Feb-25 02:14 UTC.
Position N 09°12' W 079°54'.
Warning: this ship's position is 22 days out of date.

Length 180 m; draft 10 m.

Type: Cargo ship. MMSI: 538005074.

Date/timePositionNaut miles runAvg speedWind from/ knotsBaromVisibWave heightAir tempDewpointWater temp
2018-Feb-02 15:30N 09°12' W 079°54'2 2.4
2018-Feb-02 14:30N 09°13' W 079°56'1 1.6
2018-Feb-02 14:00N 09°13' W 079°55'2 3.9
2018-Feb-02 13:30N 09°15' W 079°55'1 1.9
2018-Feb-02 12:59N 09°16' W 079°55'0 0.5
2018-Feb-02 12:30N 09°17' W 079°55'0 0.6
2018-Feb-02 12:00N 09°17' W 079°55'1 2.2
2018-Feb-02 11:30N 09°18' W 079°55'3 5.9
2018-Feb-02 11:00N 09°21' W 079°55'3 5.0
2018-Feb-02 10:30N 09°23' W 079°55'3 6.8
2018-Feb-02 10:01N 09°27' W 079°55'1 1.9
2018-Feb-02 09:28N 09°27' W 079°56'0 0.2
2018-Feb-02 08:58N 09°26' W 079°56'0 0.0
2018-Feb-02 08:28N 09°26' W 079°56'0 0.0
2018-Feb-02 07:58N 09°26' W 079°56'0 0.0
2018-Feb-02 07:28N 09°26' W 079°56'0 0.0
2018-Feb-02 06:58N 09°26' W 079°56'0 0.0
2018-Feb-02 06:28N 09°26' W 079°56'0 0.0
2018-Feb-02 05:58N 09°26' W 079°56'0 0.0
2018-Feb-02 05:28N 09°26' W 079°56'0 0.0
2018-Feb-02 04:58N 09°26' W 079°56'0 0.0
2018-Feb-02 04:28N 09°26' W 079°56'0 0.0
2018-Feb-02 03:58N 09°26' W 079°56'0 0.0
2018-Feb-02 03:28N 09°26' W 079°56'0 0.0
2018-Feb-02 02:58N 09°26' W 079°56'0 0.0
2018-Feb-02 02:28N 09°26' W 079°56'0 0.0
2018-Feb-02 01:58N 09°26' W 079°56'0 0.0
2018-Feb-02 01:28N 09°26' W 079°56'0 0.0
2018-Feb-02 00:58N 09°26' W 079°56'0 0.0
2018-Feb-02 00:22N 09°26' W 079°56'0 0.0
2018-Feb-01 23:58N 09°26' W 079°56'0 0.0
2018-Feb-01 23:28N 09°26' W 079°56'0 0.0
2018-Feb-01 22:55N 09°26' W 079°56'0 0.0
2018-Feb-01 21:58N 09°26' W 079°56'0 0.0
2018-Feb-01 21:28N 09°26' W 079°56'0 0.0
2018-Feb-01 19:28N 09°26' W 079°56'0 0.0
2018-Feb-01 18:58N 09°26' W 079°56'0 0.0
2018-Feb-01 18:28N 09°26' W 079°56'0 0.0
2018-Feb-01 17:58N 09°26' W 079°56'0 0.0
2018-Feb-01 17:31N 09°26' W 079°56'0 0.0
2018-Feb-01 16:58N 09°26' W 079°56'0 0.0
2018-Feb-01 16:28N 09°26' W 079°56'0 0.0
2018-Feb-01 15:58N 09°26' W 079°56'0 0.0
2018-Feb-01 13:28N 09°26' W 079°56'0 0.0
2018-Feb-01 12:58N 09°26' W 079°56'0 0.0
2018-Feb-01 12:28N 09°26' W 079°56'0 0.0
2018-Feb-01 11:58N 09°26' W 079°56'0 0.0
2018-Feb-01 11:01N 09°26' W 079°56'0 0.0
2018-Feb-01 10:31N 09°26' W 079°56'0 0.0
2018-Feb-01 09:55N 09°26' W 079°56'0 0.0
2018-Feb-01 09:28N 09°26' W 079°56'0 0.0
2018-Feb-01 08:58N 09°26' W 079°56'0 0.0
2018-Feb-01 08:31N 09°26' W 079°56'0 0.0
2018-Feb-01 07:30N 09°26' W 079°56'0 0.0
2018-Feb-01 06:58N 09°26' W 079°56'0 0.0
2018-Feb-01 06:31N 09°26' W 079°56'0 0.0
2018-Feb-01 06:00N 09°26' W 079°56'0 0.0
2018-Feb-01 05:28N 09°26' W 079°56'0 0.0
2018-Feb-01 05:01N 09°26' W 079°56'0 0.0
2018-Feb-01 04:28N 09°26' W 079°56'0 0.0
2018-Feb-01 03:58N 09°26' W 079°56'0 0.0
2018-Feb-01 03:00N 09°26' W 079°56'0 0.0
2018-Feb-01 02:28N 09°26' W 079°56'0 0.0
2018-Feb-01 01:58N 09°26' W 079°56'0 0.0
2018-Feb-01 01:30N 09°26' W 079°56'0 0.0
2018-Feb-01 01:00N 09°26' W 079°56'0 0.0
2018-Feb-01 00:30N 09°26' W 079°56'0 0.0
2018-Jan-31 23:57N 09°26' W 079°56'0 0.0
2018-Jan-31 23:00N 09°26' W 079°56'0 0.0
2018-Jan-31 22:30N 09°26' W 079°56'0 0.1
2018-Jan-31 21:00N 09°27' W 079°56'2 3.5
2018-Jan-31 20:30N 09°28' W 079°55'510.2
2018-Jan-31 20:00N 09°33' W 079°53'612.2
2018-Jan-31 19:30N 09°39' W 079°52'  
2018-Jan-26 07:39N 29°56' W 090°21'0 0.0
2018-Jan-26 03:49N 29°56' W 090°21'0 0.0
2018-Jan-26 03:25N 29°56' W 090°21'0 0.0
2018-Jan-26 02:58N 29°56' W 090°21'0 0.0
2018-Jan-26 02:25N 29°56' W 090°21'0 0.0
2018-Jan-26 01:55N 29°56' W 090°21'0 0.0
2018-Jan-25 11:31N 29°56' W 090°21'0 0.0
2018-Jan-25 06:37N 29°56' W 090°21'  
Track history (hours):
 
Tides and Currents Weather Stations Pressure Air Temp Water Temp Dewpoint Dewpoint Depression Visibility Wind Speed Wind Dir Waves Ship Positions

Intrepid Eagle

Last reported at 2018-Feb-02 15:30 UTC. Time now 2018-Feb-25 02:14 UTC.
Position N 09°12' W 079°54'.
Warning: this ship's position is 22 days out of date.

Length 180 m; draft 10 m.

Type: Cargo ship. MMSI: 538005074.

Date/timePositionNaut miles runAvg speedWind from/ knotsBaromVisibWave heightAir tempDewpointWater temp
2018-Feb-02 15:30N 09°12' W 079°54'2 2.4
2018-Feb-02 14:30N 09°13' W 079°56'1 1.6
2018-Feb-02 14:00N 09°13' W 079°55'2 3.9
2018-Feb-02 13:30N 09°15' W 079°55'1 1.9
2018-Feb-02 12:59N 09°16' W 079°55'0 0.5
2018-Feb-02 12:30N 09°17' W 079°55'0 0.6
2018-Feb-02 12:00N 09°17' W 079°55'1 2.2
2018-Feb-02 11:30N 09°18' W 079°55'3 5.9
2018-Feb-02 11:00N 09°21' W 079°55'3 5.0
2018-Feb-02 10:30N 09°23' W 079°55'3 6.8
2018-Feb-02 10:01N 09°27' W 079°55'1 1.9
2018-Feb-02 09:28N 09°27' W 079°56'0 0.2
2018-Feb-02 08:58N 09°26' W 079°56'0 0.0
2018-Feb-02 08:28N 09°26' W 079°56'0 0.0
2018-Feb-02 07:58N 09°26' W 079°56'0 0.0
2018-Feb-02 07:28N 09°26' W 079°56'0 0.0
2018-Feb-02 06:58N 09°26' W 079°56'0 0.0
2018-Feb-02 06:28N 09°26' W 079°56'0 0.0
2018-Feb-02 05:58N 09°26' W 079°56'0 0.0
2018-Feb-02 05:28N 09°26' W 079°56'0 0.0
2018-Feb-02 04:58N 09°26' W 079°56'0 0.0
2018-Feb-02 04:28N 09°26' W 079°56'0 0.0
2018-Feb-02 03:58N 09°26' W 079°56'0 0.0
2018-Feb-02 03:28N 09°26' W 079°56'0 0.0
2018-Feb-02 02:58N 09°26' W 079°56'0 0.0
2018-Feb-02 02:28N 09°26' W 079°56'0 0.0
2018-Feb-02 01:58N 09°26' W 079°56'0 0.0
2018-Feb-02 01:28N 09°26' W 079°56'0 0.0
2018-Feb-02 00:58N 09°26' W 079°56'0 0.0
2018-Feb-02 00:22N 09°26' W 079°56'0 0.0
2018-Feb-01 23:58N 09°26' W 079°56'0 0.0
2018-Feb-01 23:28N 09°26' W 079°56'0 0.0
2018-Feb-01 22:55N 09°26' W 079°56'0 0.0
2018-Feb-01 21:58N 09°26' W 079°56'0 0.0
2018-Feb-01 21:28N 09°26' W 079°56'0 0.0
2018-Feb-01 19:28N 09°26' W 079°56'0 0.0
2018-Feb-01 18:58N 09°26' W 079°56'0 0.0
2018-Feb-01 18:28N 09°26' W 079°56'0 0.0
2018-Feb-01 17:58N 09°26' W 079°56'0 0.0
2018-Feb-01 17:31N 09°26' W 079°56'0 0.0
2018-Feb-01 16:58N 09°26' W 079°56'0 0.0
2018-Feb-01 16:28N 09°26' W 079°56'0 0.0
2018-Feb-01 15:58N 09°26' W 079°56'0 0.0
2018-Feb-01 13:28N 09°26' W 079°56'0 0.0
2018-Feb-01 12:58N 09°26' W 079°56'0 0.0
2018-Feb-01 12:28N 09°26' W 079°56'0 0.0
2018-Feb-01 11:58N 09°26' W 079°56'0 0.0
2018-Feb-01 11:01N 09°26' W 079°56'0 0.0
2018-Feb-01 10:31N 09°26' W 079°56'0 0.0
2018-Feb-01 09:55N 09°26' W 079°56'0 0.0
2018-Feb-01 09:28N 09°26' W 079°56'0 0.0
2018-Feb-01 08:58N 09°26' W 079°56'0 0.0
2018-Feb-01 08:31N 09°26' W 079°56'0 0.0
2018-Feb-01 07:30N 09°26' W 079°56'0 0.0
2018-Feb-01 06:58N 09°26' W 079°56'0 0.0
2018-Feb-01 06:31N 09°26' W 079°56'0 0.0
2018-Feb-01 06:00N 09°26' W 079°56'0 0.0
2018-Feb-01 05:28N 09°26' W 079°56'0 0.0
2018-Feb-01 05:01N 09°26' W 079°56'0 0.0
2018-Feb-01 04:28N 09°26' W 079°56'0 0.0
2018-Feb-01 03:58N 09°26' W 079°56'0 0.0
2018-Feb-01 03:00N 09°26' W 079°56'0 0.0
2018-Feb-01 02:28N 09°26' W 079°56'0 0.0
2018-Feb-01 01:58N 09°26' W 079°56'0 0.0
2018-Feb-01 01:30N 09°26' W 079°56'0 0.0
2018-Feb-01 01:00N 09°26' W 079°56'0 0.0
2018-Feb-01 00:30N 09°26' W 079°56'0 0.0
2018-Jan-31 23:57N 09°26' W 079°56'0 0.0
2018-Jan-31 23:00N 09°26' W 079°56'0 0.0
2018-Jan-31 22:30N 09°26' W 079°56'0 0.1
2018-Jan-31 21:00N 09°27' W 079°56'2 3.5
2018-Jan-31 20:30N 09°28' W 079°55'510.2
2018-Jan-31 20:00N 09°33' W 079°53'612.2
2018-Jan-31 19:30N 09°39' W 079°52'  
2018-Jan-26 07:39N 29°56' W 090°21'0 0.0
2018-Jan-26 03:49N 29°56' W 090°21'0 0.0
2018-Jan-26 03:25N 29°56' W 090°21'0 0.0
2018-Jan-26 02:58N 29°56' W 090°21'0 0.0
2018-Jan-26 02:25N 29°56' W 090°21'0 0.0
2018-Jan-26 01:55N 29°56' W 090°21'0 0.0
2018-Jan-25 11:31N 29°56' W 090°21'0 0.0
2018-Jan-25 06:37N 29°56' W 090°21'  

Dump ship's entire track history